Time;durP1;ratioP1;P1;durP2;ratioP2;P2;SDS_P1;SDS_P2;PMS_P1;PMS_P2;Temp;Humidity;BMP_temperature;BMP_pressure;BME280_temperature;BME280_humidity;BME280_pressure;Samples;Min_cycle;Max_cycle;Signal;HPM_P1;HPM_P2
2022/06/14 00:00:53;;;;;;;11.43;8.32;;;19.70;69.30;;;;;;5074329;28;20070;-12
2022/06/14 00:03:41;;;;;;;9.70;7.68;;;19.70;69.40;;;;;;5074411;28;20503;-12
2022/06/14 00:06:17;;;;;;;12.02;8.13;;;19.80;69.40;;;;;;5074538;28;20388;-12
2022/06/14 00:08:43;;;;;;;10.77;8.13;;;19.80;69.50;;;;;;5074975;28;20146;-10
2022/06/14 00:11:23;;;;;;;9.25;7.57;;;19.70;69.50;;;;;;5074226;28;20111;-12
2022/06/14 00:13:51;;;;;;;14.45;8.00;;;19.80;69.80;;;;;;5074734;28;20032;-11
2022/06/14 00:16:19;;;;;;;11.35;9.35;;;19.80;69.60;;;;;;5073991;28;20032;-11
2022/06/14 00:18:45;;;;;;;9.65;7.65;;;19.80;70.10;;;;;;5074152;28;20064;-10
2022/06/14 00:21:11;;;;;;;10.15;8.05;;;19.80;70.00;;;;;;5074106;28;20033;-11
2022/06/14 00:23:39;;;;;;;10.35;8.77;;;19.80;70.00;;;;;;5074018;28;20035;-12
2022/06/14 00:26:05;;;;;;;14.93;11.00;;;19.80;70.10;;;;;;5074629;28;20020;-12
2022/06/14 00:28:34;;;;;;;13.85;11.07;;;19.80;70.20;;;;;;5074631;28;20024;-12
2022/06/14 00:31:06;;;;;;;16.00;11.35;;;19.80;70.50;;;;;;5073956;28;20516;-12
2022/06/14 00:33:33;;;;;;;11.05;8.13;;;19.90;70.80;;;;;;5074763;28;20067;-12
2022/06/14 00:36:02;;;;;;;10.30;8.10;;;19.90;70.80;;;;;;5073934;28;20037;-12
2022/06/14 00:38:29;;;;;;;10.70;9.07;;;19.80;70.70;;;;;;5073779;28;20106;-12
2022/06/14 00:40:58;;;;;;;15.88;12.88;;;19.90;70.90;;;;;;5073930;28;20614;-12
2022/06/14 00:43:25;;;;;;;14.50;10.75;;;19.80;71.20;;;;;;5074299;28;20051;-11
2022/06/14 00:45:52;;;;;;;13.32;9.93;;;19.80;71.10;;;;;;5072341;28;20370;-12
2022/06/14 00:48:28;;;;;;;10.80;9.40;;;19.70;71.40;;;;;;5073352;28;20477;-12
2022/06/14 00:51:08;;;;;;;10.95;8.77;;;19.70;71.40;;;;;;5073493;28;20036;-12
2022/06/14 00:53:46;;;;;;;14.32;11.15;;;19.60;71.70;;;;;;5073491;28;20070;-11
2022/06/14 00:56:24;;;;;;;13.15;10.85;;;19.60;71.90;;;;;;5073853;28;20112;-12
2022/06/14 00:59:12;;;;;;;9.75;8.45;;;19.60;72.00;;;;;;5073403;28;20029;-11
2022/06/14 01:01:40;;;;;;;10.52;8.88;;;19.50;71.90;;;;;;5073461;28;20487;-11
2022/06/14 01:04:14;;;;;;;11.18;9.48;;;19.50;72.10;;;;;;5073307;28;20121;-12
2022/06/14 01:07:01;;;;;;;12.00;8.95;;;19.40;72.40;;;;;;5073414;28;20031;-13
2022/06/14 01:09:48;;;;;;;12.20;10.60;;;19.40;72.70;;;;;;5073309;28;20376;-12
2022/06/14 01:12:20;;;;;;;10.32;8.52;;;19.40;72.70;;;;;;5073147;28;20396;-11
2022/06/14 01:15:05;;;;;;;11.82;9.75;;;19.40;72.70;;;;;;5073309;28;20131;-11
2022/06/14 01:17:42;;;;;;;12.60;10.77;;;19.30;72.90;;;;;;5073605;28;20028;-12
2022/06/14 01:20:11;;;;;;;13.73;9.63;;;19.40;72.80;;;;;;5073245;28;20048;-11
2022/06/14 01:22:38;;;;;;;12.45;8.75;;;19.40;72.90;;;;;;5072924;28;20025;-11
2022/06/14 01:25:05;;;;;;;12.43;10.32;;;19.50;72.90;;;;;;5072158;28;20024;-12
2022/06/14 01:27:35;;;;;;;10.80;8.65;;;19.50;72.90;;;;;;5073406;28;20020;-13
2022/06/14 01:30:10;;;;;;;13.48;11.77;;;19.70;72.90;;;;;;5073119;28;20476;-12
2022/06/14 01:32:53;;;;;;;17.83;14.57;;;19.70;72.90;;;;;;5072987;28;20085;-12
2022/06/14 01:35:25;;;;;;;11.15;9.23;;;19.80;73.10;;;;;;5073090;28;20033;-11
2022/06/14 01:37:54;;;;;;;11.20;9.13;;;19.80;72.80;;;;;;5073498;28;20032;-12
2022/06/14 01:40:35;;;;;;;11.25;9.07;;;19.90;72.70;;;;;;5073083;28;20040;-11
2022/06/14 01:43:24;;;;;;;10.30;9.05;;;19.90;72.90;;;;;;5073247;28;20170;-12
2022/06/14 01:46:15;;;;;;;11.18;9.57;;;19.90;72.70;;;;;;5073041;28;20060;-12
2022/06/14 01:52:15;;;;;;;13.00;10.07;;;19.90;73.10;;;;;;5073451;28;20051;-12
2022/06/14 01:55:31;;;;;;;11.23;8.65;;;19.90;72.90;;;;;;5073486;28;20031;-11
2022/06/14 01:58:38;;;;;;;11.65;9.40;;;19.90;72.70;;;;;;5053134;28;20029;-11
2022/06/14 02:01:15;;;;;;;13.80;9.13;;;19.90;72.70;;;;;;5071794;28;20036;-11
2022/06/14 02:06:44;;;;;;;12.75;9.60;;;19.80;73.10;;;;;;5072908;28;20067;-14
2022/06/14 02:09:22;;;;;;;13.10;9.90;;;19.80;73.20;;;;;;5072690;28;20028;-13
2022/06/14 02:11:48;;;;;;;9.73;8.50;;;19.70;73.70;;;;;;5072992;28;20109;-13
2022/06/14 02:14:39;;;;;;;11.15;9.43;;;19.70;73.60;;;;;;5072456;28;20496;-13
2022/06/14 02:17:18;;;;;;;8.57;7.00;;;19.70;73.50;;;;;;5071397;28;20052;-13
2022/06/14 02:20:01;;;;;;;11.70;9.25;;;19.70;73.40;;;;;;5073002;28;20066;-12
2022/06/14 02:22:42;;;;;;;15.05;8.30;;;19.70;73.50;;;;;;5072620;28;20055;-9
2022/06/14 02:25:14;;;;;;;12.25;8.52;;;19.70;74.10;;;;;;5072550;28;20029;-10
2022/06/14 02:27:50;;;;;;;9.68;8.00;;;19.70;74.40;;;;;;5072804;28;20031;-10
2022/06/14 02:30:26;;;;;;;10.20;7.25;;;19.70;74.90;;;;;;5072248;28;20476;-10
2022/06/14 02:33:21;;;;;;;8.63;7.20;;;19.70;74.40;;;;;;5072490;28;20029;-10
2022/06/14 02:35:57;;;;;;;8.43;6.63;;;19.60;74.60;;;;;;5072810;28;20037;-10
2022/06/14 02:38:48;;;;;;;9.57;6.00;;;19.60;74.50;;;;;;5076178;28;20043;-10
2022/06/14 02:41:22;;;;;;;7.93;5.50;;;19.70;73.90;;;;;;5076314;28;20082;-10
2022/06/14 02:44:01;;;;;;;7.50;5.18;;;19.80;73.10;;;;;;5075948;28;20403;-10
2022/06/14 02:46:35;;;;;;;6.93;5.00;;;19.80;72.60;;;;;;5075822;28;20020;-9
2022/06/14 02:49:23;;;;;;;7.15;4.85;;;19.80;72.20;;;;;;5075949;28;20413;-10
2022/06/14 02:52:05;;;;;;;7.97;4.80;;;19.90;72.00;;;;;;5075899;28;20041;-10
2022/06/14 02:54:43;;;;;;;7.05;4.80;;;19.90;71.80;;;;;;5075987;28;20381;-10
2022/06/14 02:57:27;;;;;;;7.20;4.50;;;19.90;71.40;;;;;;5076143;28;20032;-9
2022/06/14 02:59:55;;;;;;;;;;;19.90;71.20;;;;;;5076166;28;20029;-12
2022/06/14 03:02:26;;;;;;;6.15;4.88;;;19.90;71.40;;;;;;5075447;28;20331;-11
2022/06/14 03:05:15;;;;;;;8.55;4.13;;;19.90;70.90;;;;;;5075873;28;20021;-10
2022/06/14 03:07:47;;;;;;;5.97;3.72;;;20.00;70.10;;;;;;5075599;28;20116;-10
2022/06/14 03:10:13;;;;;;;6.65;4.00;;;20.10;69.10;;;;;;5075935;28;20104;-10
2022/06/14 03:12:59;;;;;;;5.63;4.13;;;20.20;68.30;;;;;;5074284;28;20063;-10
2022/06/14 03:15:47;;;;;;;5.22;3.55;;;20.30;67.90;;;;;;5075805;28;20021;-9
2022/06/14 03:18:19;;;;;;;5.35;4.00;;;20.40;67.40;;;;;;5075431;28;20036;-10
2022/06/14 03:20:58;;;;;;;7.85;3.97;;;20.40;66.50;;;;;;5074152;28;20508;-9
2022/06/14 03:23:55;;;;;;;6.00;4.18;;;20.40;66.60;;;;;;5075803;28;20504;-9
2022/06/14 03:26:37;;;;;;;5.68;3.60;;;20.40;66.10;;;;;;5075512;28;20032;-9
2022/06/14 03:29:32;;;;;;;5.63;3.85;;;20.40;66.20;;;;;;5075233;28;20493;-10
2022/06/14 03:32:07;;;;;;;8.25;3.78;;;20.40;66.10;;;;;;5064974;28;20384;-10
2022/06/14 03:34:41;;;;;;;6.18;3.58;;;20.40;66.20;;;;;;5074966;28;20436;-9
2022/06/14 03:37:08;;;;;;;3.92;3.20;;;20.40;65.90;;;;;;5075230;28;20115;-10
2022/06/14 03:39:39;;;;;;;6.63;3.45;;;20.40;66.00;;;;;;5074967;28;20385;-10
2022/06/14 03:42:09;;;;;;;4.28;3.20;;;20.40;65.90;;;;;;5075262;28;20381;-10
2022/06/14 03:44:35;;;;;;;4.28;3.55;;;20.40;66.20;;;;;;5074917;28;20097;-10
2022/06/14 03:47:27;;;;;;;7.75;3.70;;;20.30;66.30;;;;;;5073829;28;20107;-11
2022/06/14 03:49:59;;;;;;;5.07;3.40;;;20.30;66.40;;;;;;5073676;28;20166;-10
2022/06/14 03:52:41;;;;;;;8.40;3.63;;;20.30;66.60;;;;;;5074741;28;20033;-10
2022/06/14 03:55:27;;;;;;;6.13;3.75;;;20.30;66.30;;;;;;5074696;28;20507;-10
2022/06/14 03:57:59;;;;;;;4.97;3.70;;;20.30;66.50;;;;;;5074694;28;20025;-10
2022/06/14 04:00:49;;;;;;;6.57;3.75;;;20.30;66.50;;;;;;5074404;28;20070;-9
2022/06/14 04:03:52;;;;;;;5.10;3.50;;;20.40;66.30;;;;;;5074855;28;20484;-10
2022/06/14 04:06:46;;;;;;;6.00;3.70;;;20.40;66.40;;;;;;5073025;28;20028;-9
2022/06/14 04:09:42;;;;;;;7.80;3.58;;;20.40;66.00;;;;;;5074718;28;20058;-10
2022/06/14 04:12:25;;;;;;;5.93;3.67;;;20.40;65.90;;;;;;5074501;28;20032;-10
2022/06/14 04:15:12;;;;;;;4.65;3.50;;;20.60;65.70;;;;;;5074589;28;20067;-10
2022/06/14 04:17:44;;;;;;;6.32;3.45;;;20.70;65.30;;;;;;5074503;28;20096;-10
2022/06/14 04:20:29;;;;;;;6.93;3.78;;;20.80;65.00;;;;;;5074595;28;20036;-11
2022/06/14 04:22:55;;;;;;;4.47;3.55;;;20.90;65.20;;;;;;5074069;28;20556;-9
2022/06/14 04:25:43;;;;;;;5.07;3.58;;;20.90;64.80;;;;;;5074279;28;20044;-10
2022/06/14 04:28:40;;;;;;;5.38;3.63;;;20.90;64.50;;;;;;5074334;28;20385;-11
2022/06/14 04:31:30;;;;;;;5.85;3.40;;;21.10;64.20;;;;;;5074323;28;20024;-9
2022/06/14 04:34:05;;;;;;;5.63;3.38;;;21.20;64.10;;;;;;5070570;28;20020;-10
2022/06/14 04:36:37;;;;;;;4.65;3.10;;;21.30;63.90;;;;;;5073963;28;20056;-10
2022/06/14 04:39:18;;;;;;;6.28;3.25;;;21.30;63.60;;;;;;5073765;28;20378;-10
2022/06/14 04:42:03;;;;;;;8.20;3.90;;;21.40;63.20;;;;;;5074130;28;20479;-10
2022/06/14 04:44:40;;;;;;;7.00;3.80;;;21.40;63.10;;;;;;5073692;28;20039;-10
2022/06/14 04:47:16;;;;;;;4.80;3.20;;;21.50;63.00;;;;;;5073930;28;20090;-10
2022/06/14 04:50:15;;;;;;;3.90;3.40;;;21.60;62.50;;;;;;5073579;28;20491;-10
2022/06/14 04:52:47;;;;;;;3.67;3.20;;;21.70;62.70;;;;;;5070253;28;20116;-10
2022/06/14 04:55:17;;;;;;;5.03;3.50;;;21.90;62.30;;;;;;5074470;28;20040;-9
2022/06/14 04:58:06;;;;;;;4.78;3.58;;;21.90;62.40;;;;;;5073346;28;20270;-11
2022/06/14 05:00:41;;;;;;;6.22;3.55;;;22.00;62.10;;;;;;5072973;28;20024;-10
2022/06/14 05:03:32;;;;;;;8.43;3.25;;;22.10;61.30;;;;;;5073414;28;20032;-10
2022/06/14 05:06:16;;;;;;;3.85;3.25;;;22.20;61.30;;;;;;5073408;28;20039;-10
2022/06/14 05:08:51;;;;;;;3.83;3.30;;;22.40;61.70;;;;;;5073340;28;20066;-11
2022/06/14 05:11:42;;;;;;;4.40;2.90;;;22.40;61.50;;;;;;5073625;28;20028;-10
2022/06/14 05:14:18;;;;;;;5.28;3.33;;;22.50;61.00;;;;;;5073340;28;20043;-10
2022/06/14 05:16:50;;;;;;;7.00;3.08;;;22.60;61.20;;;;;;5074225;28;20118;-10
2022/06/14 05:19:42;;;;;;;4.72;3.30;;;22.70;60.20;;;;;;5073276;28;20033;-10
2022/06/14 05:22:19;;;;;;;10.32;3.40;;;22.80;60.00;;;;;;5073545;28;20028;-10
2022/06/14 05:24:46;;;;;;;4.95;2.97;;;22.90;59.20;;;;;;5073331;28;20039;-12
2022/06/14 05:27:30;;;;;;;5.80;3.28;;;23.00;59.40;;;;;;5073470;28;20024;-12
2022/06/14 05:30:26;;;;;;;6.43;3.25;;;23.10;59.10;;;;;;5073340;28;20087;-12
2022/06/14 05:32:59;;;;;;;5.15;3.17;;;23.20;58.30;;;;;;5073687;28;20025;-12
2022/06/14 05:35:28;;;;;;;5.50;3.25;;;23.30;58.70;;;;;;5071923;28;20541;-11
2022/06/14 05:38:04;;;;;;;5.30;3.05;;;23.40;57.80;;;;;;5073241;28;20115;-9
2022/06/14 05:40:58;;;;;;;3.97;3.17;;;23.50;57.90;;;;;;5072771;28;20021;-12
2022/06/14 05:43:46;;;;;;;;;;;23.60;58.30;;;;;;5073302;28;20024;-12
2022/06/14 05:46:26;;;;;;;4.43;3.15;;;23.60;56.80;;;;;;5073204;28;19905;-12
2022/06/14 05:48:58;;;;;;;6.38;3.10;;;23.60;56.70;;;;;;5072974;28;20049;-12
2022/06/14 05:51:31;;;;;;;5.72;3.03;;;23.60;57.00;;;;;;5072795;28;20512;-11
2022/06/14 05:54:30;;;;;;;3.88;3.15;;;23.50;56.70;;;;;;5072860;28;20445;-11
2022/06/14 05:57:04;;;;;;;4.18;2.80;;;23.40;57.00;;;;;;5064054;28;20075;-12
2022/06/14 05:59:53;;;;;;;4.45;2.97;;;23.50;56.60;;;;;;5073373;28;20025;-12
2022/06/14 06:02:22;;;;;;;7.80;3.22;;;23.60;55.50;;;;;;5069292;28;20041;-9
2022/06/14 06:05:11;;;;;;;7.38;3.35;;;23.80;56.10;;;;;;5071402;28;20124;-12
2022/06/14 06:07:52;;;;;;;5.10;3.05;;;23.90;56.10;;;;;;5072621;28;20020;-12
2022/06/14 06:10:29;;;;;;;4.32;3.10;;;24.10;56.00;;;;;;5073478;28;20029;-12
2022/06/14 06:13:00;;;;;;;4.57;3.40;;;24.30;54.30;;;;;;5076590;28;20032;-12
2022/06/14 06:15:28;;;;;;;5.53;2.90;;;24.50;54.60;;;;;;5076565;28;20036;-12
2022/06/14 06:18:44;;;;;;;4.22;3.00;;;24.70;54.60;;;;;;5076850;28;20074;-12
2022/06/14 06:21:34;;;;;;;5.03;3.20;;;24.90;53.60;;;;;;5071455;28;20024;-10
2022/06/14 06:24:15;;;;;;;6.25;3.20;;;25.20;53.10;;;;;;5076386;28;20032;-11
2022/06/14 06:26:48;;;;;;;3.60;3.13;;;25.20;53.00;;;;;;5076211;28;20038;-12
2022/06/14 06:29:27;;;;;;;4.30;2.70;;;25.30;52.80;;;;;;5076671;28;20100;-11
2022/06/14 06:31:54;;;;;;;3.70;3.10;;;25.20;53.00;;;;;;5076883;28;20024;-12
2022/06/14 06:34:20;;;;;;;4.25;2.97;;;25.20;52.40;;;;;;5074773;28;20027;-11
2022/06/14 06:36:57;;;;;;;4.43;3.05;;;25.10;52.50;;;;;;5076458;28;20111;-12
2022/06/14 06:39:45;;;;;;;3.33;2.97;;;25.00;52.70;;;;;;5076289;28;20025;-11
2022/06/14 06:42:18;;;;;;;7.68;3.03;;;25.10;52.60;;;;;;5076128;28;20025;-11
2022/06/14 06:44:54;;;;;;;7.80;3.58;;;25.20;52.90;;;;;;5076174;28;20041;-11
2022/06/14 06:47:34;;;;;;;5.75;3.33;;;25.40;53.40;;;;;;5076266;28;20117;-12
2022/06/14 06:50:21;;;;;;;5.47;3.05;;;25.50;50.90;;;;;;5075945;28;20052;-12
2022/06/14 06:52:54;;;;;;;6.85;3.42;;;25.60;51.50;;;;;;5076157;28;20029;-12
2022/06/14 06:55:47;;;;;;;6.07;3.20;;;25.50;51.50;;;;;;5075871;28;20115;-12
2022/06/14 06:58:33;;;;;;;6.55;3.22;;;25.50;52.00;;;;;;5072618;28;20028;-11
2022/06/14 07:01:04;;;;;;;3.22;2.90;;;25.70;52.10;;;;;;5076328;28;20025;-12
2022/06/14 07:03:36;;;;;;;5.18;2.95;;;25.80;52.00;;;;;;5075661;28;20021;-12
2022/06/14 07:06:05;;;;;;;5.55;3.20;;;25.80;50.90;;;;;;5076008;28;20372;-13
2022/06/14 07:08:58;;;;;;;3.45;3.15;;;25.80;49.60;;;;;;5075305;28;20028;-11
2022/06/14 07:11:33;;;;;;;12.57;3.25;;;26.00;49.50;;;;;;5076011;28;20096;-10
2022/06/14 07:14:11;;;;;;;5.32;3.10;;;26.20;49.80;;;;;;5075637;28;20028;-12
2022/06/14 07:17:17;;;;;;;7.10;3.13;;;26.30;49.60;;;;;;5075332;28;20032;-11
2022/06/14 07:20:16;;;;;;;4.53;3.10;;;26.40;49.80;;;;;;5074396;28;20530;-11
2022/06/14 07:23:02;;;;;;;6.68;3.13;;;26.70;48.20;;;;;;5075539;28;20123;-11
2022/06/14 07:25:37;;;;;;;5.63;2.80;;;26.70;49.10;;;;;;5064155;28;20032;-11
2022/06/14 07:28:18;;;;;;;5.50;3.08;;;26.80;47.70;;;;;;5075306;28;20082;-11
2022/06/14 07:30:49;;;;;;;5.95;3.08;;;26.90;47.20;;;;;;5075563;28;20020;-11
2022/06/14 07:33:18;;;;;;;4.57;3.00;;;26.90;47.30;;;;;;5075166;28;20043;-12
2022/06/14 07:35:54;;;;;;;6.05;3.00;;;27.00;47.00;;;;;;5075039;28;20032;-10
2022/06/14 07:38:25;;;;;;;6.07;3.13;;;27.10;47.00;;;;;;5074797;28;20056;-11
2022/06/14 07:41:09;;;;;;;3.42;2.85;;;27.20;47.00;;;;;;5073773;28;20024;-11
2022/06/14 07:44:05;;;;;;;6.28;3.20;;;27.20;46.80;;;;;;5074909;28;20025;-11
2022/06/14 07:46:56;;;;;;;4.15;3.15;;;27.30;45.90;;;;;;5065303;28;20025;-12
2022/06/14 07:49:45;;;;;;;3.22;2.80;;;27.40;47.10;;;;;;5074582;28;20503;-11
2022/06/14 07:52:37;;;;;;;5.60;2.97;;;27.50;46.10;;;;;;5074740;28;20500;-10
2022/06/14 07:55:10;;;;;;;5.22;2.90;;;27.60;45.10;;;;;;5074732;28;20392;-11
2022/06/14 07:57:40;;;;;;;5.90;3.30;;;27.60;45.30;;;;;;5075816;28;20024;-12
2022/06/14 08:03:42;;;;;;;5.10;2.88;;;27.40;45.00;;;;;;5074840;28;20149;-12
2022/06/14 08:06:20;;;;;;;3.10;2.80;;;27.30;45.70;;;;;;5074706;28;20033;-11
2022/06/14 08:08:51;;;;;;;3.80;2.60;;;27.30;46.00;;;;;;5073192;28;20048;-11
2022/06/14 08:11:28;;;;;;;5.85;3.35;;;27.30;46.10;;;;;;5074417;28;20485;-11
2022/06/14 08:14:02;;;;;;;3.78;2.95;;;27.40;46.30;;;;;;5074273;28;20111;-11
2022/06/14 08:16:29;;;;;;;4.20;3.03;;;27.40;45.80;;;;;;5072856;28;20028;-10
2022/06/14 08:19:18;;;;;;;6.15;3.33;;;27.40;46.20;;;;;;5074194;28;20033;-10
2022/06/14 08:21:59;;;;;;;5.47;2.72;;;27.50;45.00;;;;;;5073859;28;20385;-10
2022/06/14 08:24:33;;;;;;;4.63;2.85;;;27.70;46.00;;;;;;5073788;28;20028;-11
2022/06/14 08:27:10;;;;;;;4.65;2.97;;;28.00;45.20;;;;;;5074084;28;20480;-11
2022/06/14 08:29:42;;;;;;;4.32;2.80;;;28.10;43.50;;;;;;5074382;28;20021;-11
2022/06/14 08:32:34;;;;;;;3.88;2.75;;;28.40;44.20;;;;;;5074191;28;20028;-11
2022/06/14 08:35:27;;;;;;;6.60;2.80;;;28.50;43.20;;;;;;5074030;28;20492;-11
2022/06/14 08:38:38;;;;;;;6.53;2.90;;;28.60;41.40;;;;;;5073830;28;20025;-10
2022/06/14 08:41:27;;;;;;;4.43;2.80;;;28.80;43.00;;;;;;5052161;28;20025;-10
2022/06/14 08:43:59;;;;;;;4.18;2.90;;;28.90;41.90;;;;;;5051793;28;20067;-11
2022/06/14 08:46:41;;;;;;;4.47;3.00;;;29.10;42.40;;;;;;5034897;28;20021;-11
2022/06/14 08:49:43;;;;;;;4.00;2.88;;;29.10;41.90;;;;;;5051691;28;20123;-11
2022/06/14 08:52:21;;;;;;;5.90;3.15;;;29.30;42.40;;;;;;5051677;28;20045;-11
2022/06/14 08:55:03;;;;;;;4.82;3.00;;;29.60;41.20;;;;;;5051574;28;20029;-11
2022/06/14 08:57:57;;;;;;;6.57;3.00;;;29.70;40.80;;;;;;5051523;28;20024;-12
2022/06/14 09:00:38;;;;;;;5.95;2.97;;;29.70;40.40;;;;;;5051326;28;20112;-11
2022/06/14 09:03:42;;;;;;;5.78;2.72;;;30.00;41.10;;;;;;5051689;28;20032;-11
2022/06/14 09:06:11;;;;;;;5.22;2.90;;;30.30;40.00;;;;;;4991977;28;20046;-11
2022/06/14 09:09:05;;;;;;;6.68;3.05;;;30.30;39.40;;;;;;4992170;28;20034;-11
2022/06/14 09:11:50;;;;;;;3.22;2.90;;;30.20;38.70;;;;;;4969811;28;20034;-11
2022/06/14 09:14:43;;;;;;;4.50;3.10;;;30.40;39.90;;;;;;4998930;28;20033;-10
2022/06/14 09:17:12;;;;;;;5.13;2.80;;;30.60;37.90;;;;;;5031415;28;20406;-12
2022/06/14 09:20:02;;;;;;;4.18;2.90;;;30.80;38.70;;;;;;5031241;28;20502;-10
2022/06/14 09:22:37;;;;;;;4.63;2.90;;;30.90;39.10;;;;;;5031045;28;20076;-11
2022/06/14 09:25:06;;;;;;;5.47;2.83;;;30.90;39.60;;;;;;5031022;28;20405;-11
2022/06/14 09:27:49;;;;;;;7.22;3.15;;;31.00;38.90;;;;;;5031170;28;20156;-11
2022/06/14 09:30:27;;;;;;;5.43;2.90;;;31.40;37.50;;;;;;5031218;28;20155;-11
2022/06/14 09:33:15;;;;;;;5.35;2.80;;;31.60;38.10;;;;;;5031148;28;20117;-10
2022/06/14 09:36:05;;;;;;;3.75;2.58;;;31.90;37.30;;;;;;5031036;28;20117;-11
2022/06/14 09:38:31;;;;;;;5.28;2.92;;;32.20;37.10;;;;;;5030896;28;20018;-10
2022/06/14 09:41:34;;;;;;;4.75;2.80;;;32.50;35.70;;;;;;5030940;28;20103;-11
2022/06/14 09:44:34;;;;;;;6.32;2.88;;;32.60;35.20;;;;;;5064845;28;20094;-11
2022/06/14 09:47:16;;;;;;;6.47;2.88;;;32.70;34.80;;;;;;5077123;28;20051;-11
2022/06/14 09:50:24;;;;;;;2.67;2.47;;;32.90;36.40;;;;;;5076874;28;20115;-11
2022/06/14 09:53:04;;;;;;;3.53;2.15;;;32.90;36.10;;;;;;5076938;28;20388;-12
2022/06/14 09:55:38;;;;;;;6.68;2.80;;;32.80;34.70;;;;;;5077042;28;20046;-11
2022/06/14 09:58:25;;;;;;;4.75;2.60;;;33.00;35.90;;;;;;5077191;28;20060;-11
2022/06/14 10:01:13;;;;;;;3.67;2.88;;;33.10;33.40;;;;;;5077224;28;20099;-11
2022/06/14 10:03:53;;;;;;;6.03;2.67;;;33.00;34.00;;;;;;5076783;28;20032;-11
2022/06/14 10:06:44;;;;;;;5.65;2.47;;;33.40;33.90;;;;;;5075372;28;20025;-11
2022/06/14 10:09:25;;;;;;;4.68;2.65;;;33.40;33.70;;;;;;5077000;28;20098;-12
2022/06/14 10:12:11;;;;;;;8.65;2.92;;;33.40;34.40;;;;;;5077005;28;20049;-11
2022/06/14 10:15:09;;;;;;;4.10;2.72;;;33.60;34.40;;;;;;5076262;28;20504;-10
2022/06/14 10:18:05;;;;;;;3.10;2.40;;;33.90;34.30;;;;;;5069043;28;20043;-12
2022/06/14 10:20:43;;;;;;;5.43;2.30;;;34.30;33.40;;;;;;5075115;28;20036;-12
2022/06/14 10:23:34;;;;;;;7.13;2.80;;;34.60;32.60;;;;;;5077242;28;20032;-11
2022/06/14 10:29:15;;;;;;;5.30;2.85;;;35.20;32.80;;;;;;5076945;28;20442;-11
2022/06/14 10:32:06;;;;;;;4.25;2.70;;;35.20;32.40;;;;;;5076648;28;20029;-11
2022/06/14 10:34:41;;;;;;;3.92;2.80;;;35.40;31.30;;;;;;5076501;28;20056;-10
2022/06/14 10:37:19;;;;;;;3.42;2.53;;;35.30;31.50;;;;;;5076245;28;20028;-11
2022/06/14 10:39:51;;;;;;;4.28;2.20;;;35.20;31.60;;;;;;5076321;28;20043;-13
2022/06/14 10:42:46;;;;;;;3.65;2.50;;;35.50;31.80;;;;;;5075922;28;20507;-12
2022/06/14 10:45:21;;;;;;;6.65;2.30;;;35.70;31.70;;;;;;5076498;28;20044;-11
2022/06/14 10:47:56;;;;;;;3.53;2.30;;;35.90;31.10;;;;;;5075984;28;20037;-11
2022/06/14 10:50:47;;;;;;;5.38;2.60;;;35.70;30.90;;;;;;5076014;28;20129;-11
2022/06/14 10:53:42;;;;;;;4.18;2.35;;;36.00;30.40;;;;;;5075859;28;20035;-12
2022/06/14 10:56:33;;;;;;;5.10;2.40;;;36.00;30.30;;;;;;5075509;28;20112;-11
2022/06/14 10:59:04;;;;;;;2.83;2.08;;;36.20;29.80;;;;;;5075836;28;20028;-10
2022/06/14 11:01:52;;;;;;;3.00;2.40;;;36.40;30.30;;;;;;5075824;28;20039;-11
2022/06/14 11:04:28;;;;;;;3.38;2.10;;;36.40;28.70;;;;;;5075484;28;20059;-11
2022/06/14 11:07:00;;;;;;;3.78;2.30;;;36.50;29.80;;;;;;5075693;28;20029;-11
2022/06/14 11:09:52;;;;;;;6.63;2.60;;;36.80;29.90;;;;;;5075652;28;20059;-11
2022/06/14 11:12:53;;;;;;;7.18;2.38;;;36.90;29.30;;;;;;5075478;28;20029;-11
2022/06/14 11:15:46;;;;;;;2.50;1.80;;;36.70;28.70;;;;;;5075907;28;20496;-11
2022/06/14 11:18:30;;;;;;;3.55;2.30;;;37.10;29.20;;;;;;5075612;28;20062;-11
2022/06/14 11:21:24;;;;;;;2.72;2.10;;;37.30;28.70;;;;;;5075744;28;20036;-11
2022/06/14 11:23:56;;;;;;;4.30;2.30;;;37.60;29.00;;;;;;5075473;28;20032;-11
2022/06/14 11:26:49;;;;;;;3.60;2.20;;;37.50;28.10;;;;;;5075126;28;20083;-11
2022/06/14 11:29:22;;;;;;;;;;;37.80;28.30;;;;;;5076125;28;20048;-12
2022/06/14 11:32:23;;;;;;;5.75;2.25;;;38.10;27.50;;;;;;5075230;28;19904;-11
2022/06/14 11:35:10;;;;;;;3.25;2.00;;;38.10;27.60;;;;;;5062932;28;20511;-11
2022/06/14 11:37:40;;;;;;;3.10;1.98;;;38.40;26.80;;;;;;5075056;28;20522;-11
2022/06/14 11:40:23;;;;;;;4.55;2.20;;;38.60;27.70;;;;;;5075092;28;20181;-10
2022/06/14 11:42:55;;;;;;;4.45;2.20;;;38.40;26.60;;;;;;5075312;28;20033;-11
2022/06/14 11:45:37;;;;;;;5.05;2.08;;;38.40;27.20;;;;;;5075208;28;20067;-11
2022/06/14 11:48:39;;;;;;;8.57;2.47;;;38.40;27.40;;;;;;5075235;28;20028;-11
2022/06/14 11:51:30;;;;;;;3.80;2.00;;;38.50;27.20;;;;;;5074665;28;20048;-11
2022/06/14 11:54:25;;;;;;;22.55;3.80;;;38.60;27.60;;;;;;5075362;28;20031;-11
2022/06/14 11:57:12;;;;;;;11.20;2.80;;;38.70;26.90;;;;;;5065005;28;20025;-11
2022/06/14 11:59:59;;;;;;;4.85;2.25;;;38.20;26.90;;;;;;5074949;28;20032;-11
2022/06/14 12:02:40;;;;;;;4.63;2.10;;;38.30;27.90;;;;;;5074512;28;20032;-11
2022/06/14 12:05:16;;;;;;;5.50;2.28;;;38.80;27.70;;;;;;5074489;28;20487;-11
2022/06/14 12:07:52;;;;;;;3.63;1.77;;;39.20;27.20;;;;;;5072597;28;20111;-11
2022/06/14 12:10:55;;;;;;;6.30;2.20;;;39.60;26.60;;;;;;5074576;28;20021;-11
2022/06/14 12:13:30;;;;;;;3.45;1.83;;;39.80;25.50;;;;;;5074319;28;20060;-11
2022/06/14 12:16:11;;;;;;;3.78;2.20;;;39.90;25.80;;;;;;5074289;28;20473;-11
2022/06/14 12:18:42;;;;;;;3.72;2.20;;;40.10;25.50;;;;;;5074105;28;20024;-10
2022/06/14 12:21:24;;;;;;;6.18;2.28;;;39.60;26.00;;;;;;5074230;28;20025;-11
2022/06/14 12:23:56;;;;;;;6.57;2.28;;;39.60;26.10;;;;;;5074277;28;20031;-11
2022/06/14 12:26:40;;;;;;;;;;;39.20;26.30;;;;;;5074433;28;20024;-10
2022/06/14 12:29:30;;;;;;;4.03;1.98;;;38.80;26.50;;;;;;5074111;28;20391;-10
2022/06/14 12:32:14;;;;;;;4.05;2.17;;;39.00;26.90;;;;;;5074360;28;20032;-11
2022/06/14 12:34:50;;;;;;;2.88;1.90;;;39.40;25.80;;;;;;5074084;28;20020;-11
2022/06/14 12:37:43;;;;;;;3.75;1.90;;;39.70;26.20;;;;;;5074742;28;20132;-11
2022/06/14 12:40:22;;;;;;;2.33;1.65;;;39.90;25.90;;;;;;5073821;28;20037;-11
2022/06/14 12:43:12;;;;;;;4.97;1.90;;;40.20;26.00;;;;;;5073871;28;20020;-11
2022/06/14 12:45:51;;;;;;;4.13;2.25;;;40.50;25.00;;;;;;5073648;28;20039;-11
2022/06/14 12:48:50;;;;;;;6.80;2.20;;;40.60;25.20;;;;;;5073749;28;20070;-11
2022/06/14 12:51:22;;;;;;;4.68;2.10;;;40.60;25.00;;;;;;5073551;28;20199;-12
2022/06/14 12:54:06;;;;;;;4.20;2.10;;;40.70;25.10;;;;;;5073853;28;20027;-11
2022/06/14 12:56:42;;;;;;;2.55;2.03;;;40.60;25.40;;;;;;5073384;28;20028;-11
2022/06/14 12:59:48;;;;;;;4.22;1.85;;;40.70;24.90;;;;;;5074066;28;20079;-11
2022/06/14 13:02:16;;;;;;;2.95;1.90;;;40.70;24.70;;;;;;5051319;28;20033;-15
2022/06/14 13:04:53;;;;;;;5.05;2.05;;;40.70;24.70;;;;;;5051336;28;20242;-12
2022/06/14 13:07:49;;;;;;;3.10;1.80;;;40.50;25.00;;;;;;5051400;28;20362;-10
2022/06/14 13:10:38;;;;;;;2.72;1.90;;;40.50;24.90;;;;;;5051096;28;20447;-12
2022/06/14 13:13:21;;;;;;;4.68;2.03;;;40.30;25.40;;;;;;5040925;28;20116;-11
2022/06/14 13:16:17;;;;;;;3.65;2.00;;;40.10;25.10;;;;;;5051302;28;20067;-11
2022/06/14 13:18:49;;;;;;;3.17;1.88;;;39.80;25.00;;;;;;5035144;28;20025;-12
2022/06/14 13:21:27;;;;;;;2.25;1.98;;;39.30;26.20;;;;;;5051192;28;20025;-11
2022/06/14 13:24:29;;;;;;;3.38;1.90;;;39.30;26.00;;;;;;5051005;28;20028;-11
2022/06/14 13:27:15;;;;;;;4.18;2.00;;;39.00;25.50;;;;;;5051165;28;20052;-11
2022/06/14 13:29:55;;;;;;;3.10;1.90;;;39.20;25.90;;;;;;5051100;28;20036;-10
2022/06/14 13:32:47;;;;;;;2.53;1.70;;;39.40;25.20;;;;;;5051729;28;20532;-10
2022/06/14 13:35:31;;;;;;;2.85;1.80;;;39.40;25.10;;;;;;5051415;28;20029;-12
2022/06/14 13:38:23;;;;;;;3.40;2.17;;;39.40;25.50;;;;;;5064111;28;20488;-11
2022/06/14 13:40:57;;;;;;;4.90;2.30;;;39.40;25.30;;;;;;5073833;28;20025;-11
2022/06/14 13:43:23;;;;;;;4.47;2.00;;;39.20;25.70;;;;;;5073401;28;20033;-11
2022/06/14 13:46:06;;;;;;;3.65;2.00;;;39.00;26.10;;;;;;5073224;28;20384;-10
2022/06/14 13:48:54;;;;;;;3.60;2.22;;;39.10;25.90;;;;;;5073393;28;20103;-12
2022/06/14 13:51:32;;;;;;;2.97;2.03;;;39.20;25.80;;;;;;5072782;28;20041;-12
2022/06/14 13:54:10;;;;;;;2.53;2.08;;;38.80;25.70;;;;;;5072824;28;20562;-13
2022/06/14 13:56:43;;;;;;;4.07;2.00;;;38.60;26.10;;;;;;5072704;28;20052;-12
2022/06/14 13:59:24;;;;;;;2.92;1.85;;;38.50;26.50;;;;;;5073721;28;20033;-12
2022/06/14 14:02:05;;;;;;;4.55;2.05;;;38.30;26.80;;;;;;5073204;28;20029;-11
2022/06/14 14:05:30;;;;;;;6.63;2.30;;;38.20;27.00;;;;;;5072808;28;20055;-12
2022/06/14 14:08:07;;;;;;;3.45;2.00;;;37.90;26.60;;;;;;4978183;28;20582;-11
2022/06/14 14:10:54;;;;;;;4.30;2.20;;;37.60;27.30;;;;;;4991225;28;20173;-12